Time;durP1;ratioP1;P1;durP2;ratioP2;P2;SDS_P1;SDS_P2;PMS_P1;PMS_P2;Temp;Humidity;BMP_temperature;BMP_pressure;BME280_temperature;BME280_humidity;BME280_pressure;Samples;Min_cycle;Max_cycle;Signal;HPM_P1;HPM_P2
2022/12/06 00:02:44;;;;;;;1.67;0.93;;;;;;;;;;20962970;28;20286;-66
2022/12/06 00:12:46;;;;;;;1.00;0.77;;;;;;;;;;20962119;28;20217;-66
2022/12/06 00:22:49;;;;;;;1.17;0.80;;;;;;;;;;20977522;28;20326;-66
2022/12/06 00:32:50;;;;;;;1.00;0.73;;;;;;;;;;20939792;28;20209;-66
2022/12/06 00:42:52;;;;;;;0.90;0.53;;;;;;;;;;20942919;28;20274;-66
2022/12/06 00:52:55;;;;;;;0.30;0.20;;;;;;;;;;20975152;28;20287;-66
2022/12/06 01:02:59;;;;;;;0.57;0.50;;;4.60;99.90;;;;;;20940676;28;20271;-66
2022/12/06 01:13:02;;;;;;;2.40;1.27;;;;;;;;;;20957471;28;20225;-66
2022/12/06 01:23:04;;;;;;;1.23;0.60;;;;;;;;;;20906299;28;20275;-66
2022/12/06 01:33:06;;;;;;;0.53;0.40;;;;;;;;;;20876889;28;20267;-66
2022/12/06 01:43:40;;;;;;;0.63;0.37;;;4.50;99.90;;;;;;20877772;28;20222;-66
2022/12/06 01:53:44;;;;;;;2.10;0.80;;;;;;;;;;20873748;28;20279;-66
2022/12/06 02:03:47;;;;;;;1.73;0.90;;;;;;;;;;20855197;28;20218;-66
2022/12/06 02:13:49;;;;;;;0.77;0.47;;;4.40;99.90;;;;;;20886982;28;20218;-66
2022/12/06 02:24:11;;;;;;;0.90;0.63;;;;;;;;;;20854194;28;20754;-66
2022/12/06 02:34:17;;;;;;;0.87;0.50;;;;;;;;;;20886051;28;20279;-66
2022/12/06 02:44:25;;;;;;;1.20;0.83;;;4.50;99.90;;;;;;20868437;28;20222;-66
2022/12/06 02:54:28;;;;;;;0.80;0.60;;;4.40;99.90;;;;;;20918737;28;20224;-66
2022/12/06 03:05:21;;;;;;;0.90;0.53;;;4.40;99.90;;;;;;20934441;28;20221;-66
2022/12/06 03:15:35;;;;;;;0.77;0.40;;;4.40;99.90;;;;;;20913245;28;20205;-66
2022/12/06 03:25:37;;;;;;;0.80;0.40;;;;;;;;;;20956117;28;20715;-66
2022/12/06 03:35:41;;;;;;;0.53;0.50;;;4.40;99.90;;;;;;20884884;28;20210;-66
2022/12/06 03:46:08;;;;;;;0.33;0.23;;;4.40;99.90;;;;;;20897878;28;20264;-66
2022/12/06 03:56:11;;;;;;;0.60;0.33;;;;;;;;;;20934701;28;20226;-66
2022/12/06 04:06:13;;;;;;;0.40;0.30;;;;;;;;;;20903694;28;20302;-66
2022/12/06 04:26:46;;;;;;;0.43;0.30;;;;;;;;;;20964196;28;20708;-68
2022/12/06 04:47:08;;;;;;;1.07;0.50;;;4.30;99.90;;;;;;20966318;28;20216;-68
2022/12/06 04:57:11;;;;;;;0.40;0.33;;;;;;;;;;20989671;28;20763;-68
2022/12/06 05:07:13;;;;;;;0.77;0.33;;;;;;;;;;20992162;28;20262;-68
2022/12/06 05:17:15;;;;;;;2.57;0.67;;;;;;;;;;20971411;28;20221;-68
2022/12/06 05:27:17;;;;;;;0.87;0.50;;;;;;;;;;20987970;28;20228;-69
2022/12/06 05:37:18;;;;;;;0.30;0.30;;;;;;;;;;20987425;28;20611;-69
2022/12/06 05:47:20;;;;;;;1.00;0.37;;;;;;;;;;20986277;28;20596;-68
2022/12/06 05:57:21;;;;;;;0.83;0.60;;;;;;;;;;20984922;28;20205;-69
2022/12/06 06:07:23;;;;;;;2.20;0.77;;;;;;;;;;20984985;28;20221;-69
2022/12/06 06:17:25;;;;;;;0.80;0.40;;;;;;;;;;20977245;28;20708;-68
2022/12/06 06:27:27;;;;;;;1.87;0.60;;;;;;;;;;20982585;28;20233;-68
2022/12/06 06:37:31;;;;;;;0.97;0.70;;;;;;;;;;20981657;28;20296;-68
2022/12/06 06:47:32;;;;;;;0.53;0.37;;;;;;;;;;20983643;28;20282;-68
2022/12/06 06:57:35;;;;;;;0.60;0.60;;;;;;;;;;20986176;28;20209;-68
2022/12/06 07:07:36;;;;;;;0.50;0.50;;;;;;;;;;20998089;28;20317;-68
2022/12/06 07:17:38;;;;;;;0.83;0.60;;;;;;;;;;20996203;28;20688;-69
2022/12/06 07:27:40;;;;;;;1.10;0.40;;;;;;;;;;20993924;28;20241;-69
2022/12/06 07:37:42;;;;;;;0.77;0.57;;;;;;;;;;20994729;28;20216;-68
2022/12/06 07:47:44;;;;;;;0.60;0.47;;;;;;;;;;20990953;28;20294;-69
2022/12/06 07:57:46;;;;;;;0.77;0.43;;;;;;;;;;20981084;28;20230;-69
2022/12/06 08:07:48;;;;;;;0.43;0.37;;;;;;;;;;20908769;28;20221;-69
2022/12/06 08:17:50;;;;;;;0.57;0.43;;;;;;;;;;20898883;28;20226;-69
2022/12/06 08:27:52;;;;;;;0.63;0.53;;;;;;;;;;20901501;28;20379;-69
2022/12/06 08:37:53;;;;;;;1.47;0.60;;;;;;;;;;20899854;28;20214;-68
2022/12/06 08:47:55;;;;;;;0.50;0.50;;;;;;;;;;20919633;28;20241;-68
2022/12/06 08:57:57;;;;;;;0.77;0.57;;;;;;;;;;20904919;28;20202;-68
2022/12/06 09:07:59;;;;;;;0.83;0.43;;;;;;;;;;20917377;28;20226;-69
2022/12/06 09:18:01;;;;;;;0.60;0.60;;;;;;;;;;20980849;28;20627;-69
2022/12/06 09:28:03;;;;;;;0.50;0.50;;;4.70;99.90;;;;;;20978839;28;20288;-69
2022/12/06 09:38:05;;;;;;;0.90;0.80;;;;;;;;;;20969319;28;20692;-68
2022/12/06 09:48:07;;;;;;;1.27;0.77;;;;;;;;;;20982460;28;20287;-68
2022/12/06 09:58:23;;;;;;;1.17;0.60;;;;;;;;;;20968005;28;20930;-67
2022/12/06 10:08:46;;;;;;;1.30;0.57;;;4.80;99.90;;;;;;20885770;28;20228;-68
2022/12/06 10:19:26;;;;;;;1.10;0.60;;;;;;;;;;20957346;22;20225;-69
2022/12/06 10:29:36;;;;;;;1.67;0.90;;;;;;;;;;20790493;28;20327;-69
2022/12/06 10:39:44;;;;;;;1.57;1.00;;;;;;;;;;20877193;28;20214;-66
2022/12/06 10:49:54;;;;;;;1.37;0.70;;;5.10;99.90;;;;;;20860594;28;20229;-68
2022/12/06 11:00:11;;;;;;;0.97;0.50;;;5.20;99.90;;;;;;20878676;28;20251;-69
2022/12/06 11:10:15;;;;;;;2.60;0.60;;;;;;;;;;20782754;28;20628;-67
2022/12/06 11:20:26;;;;;;;1.13;0.70;;;5.20;99.90;;;;;;20820645;28;20269;-68
2022/12/06 11:30:28;;;;;;;1.50;1.00;;;;;;;;;;20824077;28;20587;-66
2022/12/06 11:40:32;;;;;;;0.80;0.50;;;;;;;;;;20814684;28;20211;-68
2022/12/06 11:50:36;;;;;;;1.07;0.70;;;5.40;99.90;;;;;;20822508;28;20272;-68
2022/12/06 12:00:59;;;;;;;2.23;1.17;;;5.30;99.90;;;;;;20817710;28;20686;-67
2022/12/06 12:11:03;;;;;;;6.13;3.17;;;;;;;;;;20817363;28;20221;-67
2022/12/06 12:21:05;;;;;;;3.43;1.90;;;;;;;;;;20813114;28;20210;-67
2022/12/06 12:31:18;;;;;;;2.17;1.23;;;;;;;;;;20811930;28;20254;-67
2022/12/06 12:41:25;;;;;;;1.47;0.77;;;5.20;99.90;;;;;;20821456;28;20245;-67
2022/12/06 12:51:32;;;;;;;1.70;1.07;;;;;;;;;;20804590;28;20222;-67
2022/12/06 13:01:37;;;;;;;0.93;0.80;;;;;;;;;;20793811;28;20693;-67
2022/12/06 13:11:45;;;;;;;2.13;1.00;;;5.40;99.90;;;;;;20818183;28;20226;-67
2022/12/06 13:21:48;;;;;;;1.23;0.90;;;;;;;;;;20816602;28;20210;-67
2022/12/06 13:31:52;;;;;;;2.00;0.80;;;5.50;99.90;;;;;;20833155;28;20242;-68
2022/12/06 13:52:41;;;;;;;2.23;1.20;;;5.50;99.90;;;;;;20750899;28;20293;-69
2022/12/06 14:02:45;;;;;;;1.17;0.80;;;5.50;99.90;;;;;;20797751;28;20231;-68
2022/12/06 14:12:58;;;;;;;1.37;0.90;;;;;;;;;;20805041;28;20283;-68
2022/12/06 14:22:59;;;;;;;1.93;0.87;;;;;;;;;;20806586;28;20206;-68
2022/12/06 14:33:01;;;;;;;1.43;0.63;;;;;;;;;;20816663;28;20602;-68
2022/12/06 14:43:13;;;;;;;1.43;0.77;;;;;;;;;;20826347;28;20264;-66
2022/12/06 14:53:27;;;;;;;2.07;1.60;;;;;;;;;;20828122;28;20234;-67
2022/12/06 15:03:31;;;;;;;3.07;1.97;;;5.40;99.90;;;;;;20824654;28;20263;-66
2022/12/06 15:13:33;;;;;;;2.63;1.40;;;;;;;;;;20802181;28;20300;-67
2022/12/06 15:23:55;;;;;;;4.43;2.83;;;5.40;99.90;;;;;;20780392;28;20215;-67
2022/12/06 15:33:56;;;;;;;2.37;1.03;;;;;;;;;;20805395;28;20585;-66
2022/12/06 15:43:58;;;;;;;1.33;1.00;;;;;;;;;;20795552;28;20265;-67
2022/12/06 15:54:01;;;;;;;1.37;0.87;;;;;;;;;;20810208;28;20222;-68
2022/12/06 16:04:03;;;;;;;1.23;0.77;;;;;;;;;;20808287;28;20230;-66
2022/12/06 16:14:06;;;;;;;1.30;0.87;;;;;;;;;;20814869;28;20575;-67
2022/12/06 16:24:11;;;;;;;1.13;0.83;;;;;;;;;;20805172;28;20590;-67
2022/12/06 16:34:13;;;;;;;1.00;0.60;;;;;;;;;;20797194;28;20231;-66
2022/12/06 16:44:15;;;;;;;0.83;0.60;;;;;;;;;;20736029;28;20220;-66
2022/12/06 16:54:17;;;;;;;1.10;0.80;;;;;;;;;;20739531;28;20214;-66
2022/12/06 17:04:19;;;;;;;2.73;1.10;;;;;;;;;;20815037;28;20245;-67
2022/12/06 17:14:25;;;;;;;1.23;1.00;;;5.30;99.90;;;;;;20752319;28;20689;-67
2022/12/06 17:24:27;;;;;;;1.70;1.10;;;;;;;;;;20809275;28;20618;-67
2022/12/06 17:34:29;;;;;;;2.73;1.70;;;;;;;;;;20798889;28;20319;-67
2022/12/06 17:44:32;;;;;;;1.47;0.90;;;5.10;99.90;;;;;;20798412;28;20230;-67
2022/12/06 17:54:34;;;;;;;3.77;2.03;;;;;;;;;;20814340;28;20709;-67
2022/12/06 18:04:36;;;;;;;2.07;1.37;;;;;;;;;;20812636;28;20206;-67
2022/12/06 18:14:38;;;;;;;2.07;1.20;;;;;;;;;;20827635;22;20572;-68
2022/12/06 18:24:40;;;;;;;1.03;0.70;;;;;;;;;;20831019;28;20202;-72
2022/12/06 18:34:41;;;;;;;0.60;0.50;;;;;;;;;;20808705;28;20875;-69
2022/12/06 18:44:43;;;;;;;0.80;0.63;;;;;;;;;;20824600;28;20293;-68
2022/12/06 18:54:45;;;;;;;2.30;1.40;;;;;;;;;;20814429;28;20223;-68
2022/12/06 19:04:47;;;;;;;2.97;1.30;;;;;;;;;;20806824;28;20689;-68
2022/12/06 19:14:48;;;;;;;1.83;1.00;;;;;;;;;;20811230;28;20272;-70
2022/12/06 19:24:50;;;;;;;1.23;0.87;;;;;;;;;;20828352;28;20276;-68
2022/12/06 19:34:54;;;;;;;1.13;0.80;;;;;;;;;;20827551;28;20356;-68
2022/12/06 19:44:56;;;;;;;0.77;0.63;;;;;;;;;;20826716;28;20210;-69
2022/12/06 19:54:58;;;;;;;1.43;0.50;;;;;;;;;;20815341;28;20706;-68
2022/12/06 20:05:00;;;;;;;1.10;0.70;;;;;;;;;;20794957;28;20681;-68
2022/12/06 20:15:02;;;;;;;1.67;0.80;;;;;;;;;;20810672;28;20227;-68
2022/12/06 20:25:04;;;;;;;1.80;1.00;;;;;;;;;;20817122;28;20697;-68
2022/12/06 20:35:06;;;;;;;1.63;1.03;;;;;;;;;;20822930;28;20775;-68
2022/12/06 20:45:08;;;;;;;3.83;1.57;;;;;;;;;;20817263;28;20364;-68
2022/12/06 20:55:10;;;;;;;2.20;1.40;;;;;;;;;;20822963;28;20606;-68
2022/12/06 21:05:12;;;;;;;4.60;2.30;;;;;;;;;;20820955;28;20202;-69
2022/12/06 21:15:13;;;;;;;2.47;1.43;;;;;;;;;;20820079;28;20249;-67
2022/12/06 21:25:15;;;;;;;2.23;1.10;;;;;;;;;;20820768;28;20256;-67
2022/12/06 21:35:17;;;;;;;2.00;1.07;;;;;;;;;;20818182;28;20329;-67
2022/12/06 21:45:19;;;;;;;1.57;0.83;;;;;;;;;;20819712;28;20312;-67
2022/12/06 21:55:21;;;;;;;1.23;0.77;;;;;;;;;;20814205;28;20253;-69
2022/12/06 22:05:23;;;;;;;1.73;0.80;;;;;;;;;;20812502;28;20543;-67
2022/12/06 22:15:25;;;;;;;1.60;1.13;;;;;;;;;;20805622;28;20238;-68
2022/12/06 22:25:27;;;;;;;1.53;0.80;;;;;;;;;;20810694;28;20218;-68
2022/12/06 22:35:29;;;;;;;2.03;0.97;;;;;;;;;;20812144;28;20211;-67
2022/12/06 22:45:33;;;;;;;2.37;1.20;;;4.80;99.90;;;;;;20808874;28;20265;-67
2022/12/06 22:55:35;;;;;;;1.83;1.07;;;;;;;;;;20811247;28;20650;-66
2022/12/06 23:05:36;;;;;;;1.63;0.80;;;;;;;;;;20823695;28;20823;-67
2022/12/06 23:15:38;;;;;;;2.40;1.07;;;;;;;;;;20824798;28;20230;-67
2022/12/06 23:25:40;;;;;;;3.40;1.57;;;;;;;;;;20824239;28;20207;-67
2022/12/06 23:35:41;;;;;;;2.37;1.43;;;;;;;;;;20822713;28;20599;-67
2022/12/06 23:45:43;;;;;;;1.57;0.90;;;;;;;;;;20827903;28;20226;-67
2022/12/06 23:55:45;;;;;;;1.20;0.70;;;;;;;;;;20828255;28;20215;-67
